sensor_id;sensor_type;location;lat;lon;timestamp;temperature;humidity
16515;DHT22;8370;52.556;7.970;2023-06-19T00:02:12;22.50;99.90
16515;DHT22;8370;52.556;7.970;2023-06-19T00:04:38;22.50;99.90
16515;DHT22;8370;52.556;7.970;2023-06-19T00:07:03;22.40;99.90
16515;DHT22;8370;52.556;7.970;2023-06-19T00:09:29;22.40;99.90
16515;DHT22;8370;52.556;7.970;2023-06-19T00:11:54;22.40;99.90
16515;DHT22;8370;52.556;7.970;2023-06-19T00:14:20;22.30;99.90
16515;DHT22;8370;52.556;7.970;2023-06-19T00:16:45;22.30;99.90
16515;DHT22;8370;52.556;7.970;2023-06-19T00:19:10;22.30;99.90
16515;DHT22;8370;52.556;7.970;2023-06-19T00:21:37;22.30;99.90
16515;DHT22;8370;52.556;7.970;2023-06-19T00:24:03;22.20;99.90
16515;DHT22;8370;52.556;7.970;2023-06-19T00:26:29;22.20;99.90
16515;DHT22;8370;52.556;7.970;2023-06-19T00:28:54;22.10;99.90
16515;DHT22;8370;52.556;7.970;2023-06-19T00:31:19;22.00;99.90
16515;DHT22;8370;52.556;7.970;2023-06-19T00:33:45;22.00;99.90
16515;DHT22;8370;52.556;7.970;2023-06-19T00:36:13;21.90;99.90
16515;DHT22;8370;52.556;7.970;2023-06-19T00:38:39;22.00;99.90
16515;DHT22;8370;52.556;7.970;2023-06-19T00:41:05;21.90;99.90
16515;DHT22;8370;52.556;7.970;2023-06-19T00:43:31;21.90;99.90
16515;DHT22;8370;52.556;7.970;2023-06-19T00:46:00;22.00;99.90
16515;DHT22;8370;52.556;7.970;2023-06-19T00:48:26;22.00;99.90
16515;DHT22;8370;52.556;7.970;2023-06-19T00:50:52;21.90;99.90
16515;DHT22;8370;52.556;7.970;2023-06-19T00:53:18;21.90;99.90
16515;DHT22;8370;52.556;7.970;2023-06-19T00:55:44;22.00;99.90
16515;DHT22;8370;52.556;7.970;2023-06-19T00:58:10;22.00;99.90
16515;DHT22;8370;52.556;7.970;2023-06-19T01:00:35;22.00;99.90
16515;DHT22;8370;52.556;7.970;2023-06-19T01:03:01;22.00;99.90
16515;DHT22;8370;52.556;7.970;2023-06-19T01:05:26;22.00;99.90
16515;DHT22;8370;52.556;7.970;2023-06-19T01:10:44;22.10;99.90
16515;DHT22;8370;52.556;7.970;2023-06-19T01:13:17;22.10;99.90
16515;DHT22;8370;52.556;7.970;2023-06-19T01:15:44;22.10;99.90
16515;DHT22;8370;52.556;7.970;2023-06-19T01:18:11;22.00;99.90
16515;DHT22;8370;52.556;7.970;2023-06-19T01:20:37;22.00;99.90
16515;DHT22;8370;52.556;7.970;2023-06-19T01:23:06;21.90;99.90
16515;DHT22;8370;52.556;7.970;2023-06-19T01:25:31;21.90;99.90
16515;DHT22;8370;52.556;7.970;2023-06-19T01:27:57;21.90;99.90
16515;DHT22;8370;52.556;7.970;2023-06-19T01:30:22;21.90;99.90
16515;DHT22;8370;52.556;7.970;2023-06-19T01:32:56;21.90;99.90
16515;DHT22;8370;52.556;7.970;2023-06-19T01:35:25;21.80;99.90
16515;DHT22;8370;52.556;7.970;2023-06-19T01:37:52;21.80;99.90
16515;DHT22;8370;52.556;7.970;2023-06-19T01:40:18;21.80;99.90
16515;DHT22;8370;52.556;7.970;2023-06-19T01:42:46;21.80;99.90
16515;DHT22;8370;52.556;7.970;2023-06-19T01:45:12;21.80;99.90
16515;DHT22;8370;52.556;7.970;2023-06-19T01:47:38;21.80;99.90
16515;DHT22;8370;52.556;7.970;2023-06-19T01:50:03;21.80;99.90
16515;DHT22;8370;52.556;7.970;2023-06-19T01:52:30;21.70;99.90
16515;DHT22;8370;52.556;7.970;2023-06-19T01:54:55;21.70;99.90
16515;DHT22;8370;52.556;7.970;2023-06-19T01:57:20;21.60;99.90
16515;DHT22;8370;52.556;7.970;2023-06-19T01:59:46;21.60;99.90
16515;DHT22;8370;52.556;7.970;2023-06-19T02:02:11;21.50;99.90
16515;DHT22;8370;52.556;7.970;2023-06-19T02:04:37;21.50;99.90
16515;DHT22;8370;52.556;7.970;2023-06-19T02:07:02;21.40;99.90
16515;DHT22;8370;52.556;7.970;2023-06-19T02:09:27;21.40;99.90
16515;DHT22;8370;52.556;7.970;2023-06-19T02:11:53;21.40;99.90
16515;DHT22;8370;52.556;7.970;2023-06-19T02:14:18;21.40;99.90
16515;DHT22;8370;52.556;7.970;2023-06-19T02:16:44;21.30;99.90
16515;DHT22;8370;52.556;7.970;2023-06-19T02:19:10;21.30;99.90
16515;DHT22;8370;52.556;7.970;2023-06-19T02:21:35;21.30;99.90
16515;DHT22;8370;52.556;7.970;2023-06-19T02:24:00;21.20;99.90
16515;DHT22;8370;52.556;7.970;2023-06-19T02:26:26;21.20;99.90
16515;DHT22;8370;52.556;7.970;2023-06-19T02:28:54;21.20;99.90
16515;DHT22;8370;52.556;7.970;2023-06-19T02:31:20;21.20;99.90
16515;DHT22;8370;52.556;7.970;2023-06-19T02:33:45;21.10;99.90
16515;DHT22;8370;52.556;7.970;2023-06-19T02:36:10;21.10;99.90
16515;DHT22;8370;52.556;7.970;2023-06-19T02:38:36;21.10;99.90
16515;DHT22;8370;52.556;7.970;2023-06-19T02:41:01;21.00;99.90
16515;DHT22;8370;52.556;7.970;2023-06-19T02:43:27;21.00;99.90
16515;DHT22;8370;52.556;7.970;2023-06-19T02:45:52;20.90;99.90
16515;DHT22;8370;52.556;7.970;2023-06-19T02:48:17;20.80;99.90
16515;DHT22;8370;52.556;7.970;2023-06-19T02:50:44;20.80;99.90
16515;DHT22;8370;52.556;7.970;2023-06-19T02:53:10;20.80;99.90
16515;DHT22;8370;52.556;7.970;2023-06-19T02:55:36;20.70;99.90
16515;DHT22;8370;52.556;7.970;2023-06-19T02:58:01;20.70;99.90
16515;DHT22;8370;52.556;7.970;2023-06-19T03:00:28;20.70;99.90
16515;DHT22;8370;52.556;7.970;2023-06-19T03:02:54;20.70;99.90
16515;DHT22;8370;52.556;7.970;2023-06-19T03:05:19;20.70;99.90
16515;DHT22;8370;52.556;7.970;2023-06-19T03:07:45;20.70;99.90
16515;DHT22;8370;52.556;7.970;2023-06-19T03:10:10;20.70;99.90
16515;DHT22;8370;52.556;7.970;2023-06-19T03:12:36;20.60;99.90
16515;DHT22;8370;52.556;7.970;2023-06-19T03:15:01;20.60;99.90
16515;DHT22;8370;52.556;7.970;2023-06-19T03:17:26;20.60;99.90
16515;DHT22;8370;52.556;7.970;2023-06-19T03:19:52;20.60;99.90
16515;DHT22;8370;52.556;7.970;2023-06-19T03:22:19;20.60;99.90
16515;DHT22;8370;52.556;7.970;2023-06-19T03:24:44;20.60;99.90
16515;DHT22;8370;52.556;7.970;2023-06-19T03:27:10;20.50;99.90
16515;DHT22;8370;52.556;7.970;2023-06-19T03:29:35;20.50;99.90
16515;DHT22;8370;52.556;7.970;2023-06-19T03:32:00;20.50;99.90
16515;DHT22;8370;52.556;7.970;2023-06-19T03:34:26;20.50;99.90
16515;DHT22;8370;52.556;7.970;2023-06-19T03:36:51;20.60;99.90
16515;DHT22;8370;52.556;7.970;2023-06-19T03:39:17;20.50;99.90
16515;DHT22;8370;52.556;7.970;2023-06-19T03:41:42;20.50;99.90
16515;DHT22;8370;52.556;7.970;2023-06-19T03:44:08;20.60;99.90
16515;DHT22;8370;52.556;7.970;2023-06-19T03:46:33;20.60;99.90
16515;DHT22;8370;52.556;7.970;2023-06-19T03:48:58;20.60;99.90
16515;DHT22;8370;52.556;7.970;2023-06-19T03:51:24;20.60;99.90
16515;DHT22;8370;52.556;7.970;2023-06-19T03:53:49;20.60;99.90
16515;DHT22;8370;52.556;7.970;2023-06-19T03:56:15;20.60;99.90
16515;DHT22;8370;52.556;7.970;2023-06-19T03:58:40;20.60;99.90
16515;DHT22;8370;52.556;7.970;2023-06-19T04:01:06;20.60;99.90
16515;DHT22;8370;52.556;7.970;2023-06-19T04:03:31;20.60;99.90
16515;DHT22;8370;52.556;7.970;2023-06-19T04:05:57;20.50;99.90
16515;DHT22;8370;52.556;7.970;2023-06-19T04:08:22;20.50;99.90
16515;DHT22;8370;52.556;7.970;2023-06-19T04:10:47;20.50;99.90
16515;DHT22;8370;52.556;7.970;2023-06-19T04:13:13;20.50;99.90
16515;DHT22;8370;52.556;7.970;2023-06-19T04:15:38;20.50;99.90
16515;DHT22;8370;52.556;7.970;2023-06-19T04:18:04;20.50;99.90
16515;DHT22;8370;52.556;7.970;2023-06-19T04:20:29;20.40;99.90
16515;DHT22;8370;52.556;7.970;2023-06-19T04:22:55;20.40;99.90
16515;DHT22;8370;52.556;7.970;2023-06-19T04:25:20;20.30;99.90
16515;DHT22;8370;52.556;7.970;2023-06-19T04:27:46;20.30;99.90
16515;DHT22;8370;52.556;7.970;2023-06-19T04:30:11;20.30;99.90
16515;DHT22;8370;52.556;7.970;2023-06-19T04:32:37;20.30;99.90
16515;DHT22;8370;52.556;7.970;2023-06-19T04:35:06;20.30;99.90
16515;DHT22;8370;52.556;7.970;2023-06-19T04:37:31;20.30;99.90
16515;DHT22;8370;52.556;7.970;2023-06-19T04:39:57;20.30;99.90
16515;DHT22;8370;52.556;7.970;2023-06-19T04:42:22;20.20;99.90
16515;DHT22;8370;52.556;7.970;2023-06-19T04:44:48;20.20;99.90
16515;DHT22;8370;52.556;7.970;2023-06-19T04:47:16;20.20;99.90
16515;DHT22;8370;52.556;7.970;2023-06-19T04:49:41;20.20;99.90
16515;DHT22;8370;52.556;7.970;2023-06-19T04:52:07;20.20;99.90
16515;DHT22;8370;52.556;7.970;2023-06-19T04:54:32;20.10;99.90
16515;DHT22;8370;52.556;7.970;2023-06-19T04:56:58;20.10;99.90
16515;DHT22;8370;52.556;7.970;2023-06-19T04:59:23;20.10;99.90
16515;DHT22;8370;52.556;7.970;2023-06-19T05:01:49;20.10;99.90
16515;DHT22;8370;52.556;7.970;2023-06-19T05:04:14;20.20;99.90
16515;DHT22;8370;52.556;7.970;2023-06-19T05:06:40;20.20;99.90
16515;DHT22;8370;52.556;7.970;2023-06-19T05:09:05;20.30;99.90
16515;DHT22;8370;52.556;7.970;2023-06-19T05:11:31;20.40;99.90
16515;DHT22;8370;52.556;7.970;2023-06-19T05:13:56;20.50;99.90
16515;DHT22;8370;52.556;7.970;2023-06-19T05:16:22;20.70;99.90
16515;DHT22;8370;52.556;7.970;2023-06-19T05:18:48;20.70;99.90
16515;DHT22;8370;52.556;7.970;2023-06-19T05:21:14;20.90;99.90
16515;DHT22;8370;52.556;7.970;2023-06-19T05:23:40;21.00;99.90
16515;DHT22;8370;52.556;7.970;2023-06-19T05:26:05;21.10;99.90
16515;DHT22;8370;52.556;7.970;2023-06-19T05:28:31;21.20;99.90
16515;DHT22;8370;52.556;7.970;2023-06-19T05:30:56;21.20;99.90
16515;DHT22;8370;52.556;7.970;2023-06-19T05:33:22;21.40;99.90
16515;DHT22;8370;52.556;7.970;2023-06-19T05:35:49;21.40;99.90
16515;DHT22;8370;52.556;7.970;2023-06-19T05:38:18;21.60;99.90
16515;DHT22;8370;52.556;7.970;2023-06-19T05:40:43;21.70;99.90
16515;DHT22;8370;52.556;7.970;2023-06-19T05:43:09;21.70;99.90
16515;DHT22;8370;52.556;7.970;2023-06-19T05:45:34;21.80;99.90
16515;DHT22;8370;52.556;7.970;2023-06-19T05:47:59;21.90;99.90
16515;DHT22;8370;52.556;7.970;2023-06-19T05:50:25;21.90;99.90
16515;DHT22;8370;52.556;7.970;2023-06-19T05:52:50;22.00;99.90
16515;DHT22;8370;52.556;7.970;2023-06-19T05:55:16;22.00;99.90
16515;DHT22;8370;52.556;7.970;2023-06-19T05:57:42;22.10;99.90
16515;DHT22;8370;52.556;7.970;2023-06-19T06:00:07;22.10;99.90
16515;DHT22;8370;52.556;7.970;2023-06-19T06:02:36;22.20;99.90
16515;DHT22;8370;52.556;7.970;2023-06-19T06:05:01;22.20;99.90
16515;DHT22;8370;52.556;7.970;2023-06-19T06:07:26;22.30;99.90
16515;DHT22;8370;52.556;7.970;2023-06-19T06:09:54;22.30;99.90
16515;DHT22;8370;52.556;7.970;2023-06-19T06:12:19;22.40;99.90
16515;DHT22;8370;52.556;7.970;2023-06-19T06:14:44;22.40;99.90
16515;DHT22;8370;52.556;7.970;2023-06-19T06:17:10;22.50;99.90
16515;DHT22;8370;52.556;7.970;2023-06-19T06:19:35;22.50;99.90
16515;DHT22;8370;52.556;7.970;2023-06-19T06:22:02;22.60;99.90
16515;DHT22;8370;52.556;7.970;2023-06-19T06:24:27;22.50;99.90
16515;DHT22;8370;52.556;7.970;2023-06-19T06:26:53;22.60;99.90
16515;DHT22;8370;52.556;7.970;2023-06-19T06:29:18;22.60;99.90
16515;DHT22;8370;52.556;7.970;2023-06-19T06:31:45;22.60;99.90
16515;DHT22;8370;52.556;7.970;2023-06-19T06:34:11;22.70;99.90
16515;DHT22;8370;52.556;7.970;2023-06-19T06:36:38;22.70;99.90
16515;DHT22;8370;52.556;7.970;2023-06-19T06:39:03;22.70;99.90
16515;DHT22;8370;52.556;7.970;2023-06-19T06:41:29;22.70;99.90
16515;DHT22;8370;52.556;7.970;2023-06-19T06:43:54;22.80;99.90
16515;DHT22;8370;52.556;7.970;2023-06-19T06:46:20;22.90;99.90
16515;DHT22;8370;52.556;7.970;2023-06-19T06:48:46;22.90;99.90
16515;DHT22;8370;52.556;7.970;2023-06-19T06:51:11;22.90;99.90
16515;DHT22;8370;52.556;7.970;2023-06-19T06:53:37;22.90;99.90
16515;DHT22;8370;52.556;7.970;2023-06-19T06:56:02;23.00;99.90
16515;DHT22;8370;52.556;7.970;2023-06-19T06:58:30;23.00;99.90
16515;DHT22;8370;52.556;7.970;2023-06-19T07:00:55;23.00;99.90
16515;DHT22;8370;52.556;7.970;2023-06-19T07:03:21;23.00;99.90
16515;DHT22;8370;52.556;7.970;2023-06-19T07:05:49;23.10;99.90
16515;DHT22;8370;52.556;7.970;2023-06-19T07:08:15;23.10;99.90
16515;DHT22;8370;52.556;7.970;2023-06-19T07:10:40;23.20;99.90
16515;DHT22;8370;52.556;7.970;2023-06-19T07:13:06;23.20;99.90
16515;DHT22;8370;52.556;7.970;2023-06-19T07:15:31;23.20;99.90
16515;DHT22;8370;52.556;7.970;2023-06-19T07:17:57;23.10;99.90
16515;DHT22;8370;52.556;7.970;2023-06-19T07:20:22;23.20;99.90
16515;DHT22;8370;52.556;7.970;2023-06-19T07:22:50;23.20;99.90
16515;DHT22;8370;52.556;7.970;2023-06-19T07:25:15;23.30;99.90
16515;DHT22;8370;52.556;7.970;2023-06-19T07:27:41;23.30;99.90
16515;DHT22;8370;52.556;7.970;2023-06-19T07:30:06;23.40;99.90
16515;DHT22;8370;52.556;7.970;2023-06-19T07:32:32;23.40;99.90
16515;DHT22;8370;52.556;7.970;2023-06-19T07:34:58;23.50;99.90
16515;DHT22;8370;52.556;7.970;2023-06-19T07:37:23;23.50;99.90
16515;DHT22;8370;52.556;7.970;2023-06-19T07:39:49;23.40;99.90
16515;DHT22;8370;52.556;7.970;2023-06-19T07:42:15;23.40;99.90
16515;DHT22;8370;52.556;7.970;2023-06-19T07:44:40;23.50;99.90
16515;DHT22;8370;52.556;7.970;2023-06-19T07:47:06;23.60;99.90
16515;DHT22;8370;52.556;7.970;2023-06-19T07:49:32;23.70;99.90
16515;DHT22;8370;52.556;7.970;2023-06-19T07:51:57;23.80;99.90
16515;DHT22;8370;52.556;7.970;2023-06-19T07:54:22;24.00;99.90
16515;DHT22;8370;52.556;7.970;2023-06-19T07:56:48;23.90;99.90
16515;DHT22;8370;52.556;7.970;2023-06-19T07:59:13;23.70;99.90
16515;DHT22;8370;52.556;7.970;2023-06-19T08:01:39;23.70;99.90
16515;DHT22;8370;52.556;7.970;2023-06-19T08:04:05;23.70;99.90
16515;DHT22;8370;52.556;7.970;2023-06-19T08:06:31;23.80;99.90
16515;DHT22;8370;52.556;7.970;2023-06-19T08:08:56;23.80;99.90
16515;DHT22;8370;52.556;7.970;2023-06-19T08:11:22;23.70;99.90
16515;DHT22;8370;52.556;7.970;2023-06-19T08:13:48;23.60;99.90
16515;DHT22;8370;52.556;7.970;2023-06-19T08:16:13;23.50;99.90
16515;DHT22;8370;52.556;7.970;2023-06-19T08:18:39;23.50;99.90
16515;DHT22;8370;52.556;7.970;2023-06-19T08:21:04;23.40;99.90
16515;DHT22;8370;52.556;7.970;2023-06-19T08:23:30;23.40;99.90
16515;DHT22;8370;52.556;7.970;2023-06-19T08:25:55;23.30;99.90
16515;DHT22;8370;52.556;7.970;2023-06-19T08:28:20;23.20;99.90
16515;DHT22;8370;52.556;7.970;2023-06-19T08:30:46;23.20;99.90
16515;DHT22;8370;52.556;7.970;2023-06-19T08:33:13;23.20;99.90
16515;DHT22;8370;52.556;7.970;2023-06-19T08:35:38;23.10;99.90
16515;DHT22;8370;52.556;7.970;2023-06-19T08:38:04;23.10;99.90
16515;DHT22;8370;52.556;7.970;2023-06-19T08:40:29;23.20;99.90
16515;DHT22;8370;52.556;7.970;2023-06-19T08:42:55;23.20;99.90
16515;DHT22;8370;52.556;7.970;2023-06-19T08:45:21;23.30;99.90
16515;DHT22;8370;52.556;7.970;2023-06-19T08:47:47;23.50;99.90
16515;DHT22;8370;52.556;7.970;2023-06-19T08:50:13;23.50;99.90
16515;DHT22;8370;52.556;7.970;2023-06-19T08:52:38;23.70;99.90
16515;DHT22;8370;52.556;7.970;2023-06-19T08:55:04;23.70;99.90
16515;DHT22;8370;52.556;7.970;2023-06-19T08:57:33;23.50;99.90
16515;DHT22;8370;52.556;7.970;2023-06-19T08:59:59;23.50;99.90
16515;DHT22;8370;52.556;7.970;2023-06-19T09:02:24;23.50;99.90
16515;DHT22;8370;52.556;7.970;2023-06-19T09:04:52;23.60;99.90
16515;DHT22;8370;52.556;7.970;2023-06-19T09:07:17;23.50;99.90
16515;DHT22;8370;52.556;7.970;2023-06-19T09:09:44;23.60;99.90
16515;DHT22;8370;52.556;7.970;2023-06-19T09:12:11;23.50;99.90
16515;DHT22;8370;52.556;7.970;2023-06-19T09:14:38;23.60;99.90
16515;DHT22;8370;52.556;7.970;2023-06-19T09:17:04;23.60;99.90
16515;DHT22;8370;52.556;7.970;2023-06-19T09:19:30;23.70;99.90
16515;DHT22;8370;52.556;7.970;2023-06-19T09:22:00;23.70;99.90
16515;DHT22;8370;52.556;7.970;2023-06-19T09:24:32;23.60;99.90
16515;DHT22;8370;52.556;7.970;2023-06-19T09:27:05;23.70;99.90
16515;DHT22;8370;52.556;7.970;2023-06-19T09:29:30;23.70;99.90
16515;DHT22;8370;52.556;7.970;2023-06-19T09:31:56;23.70;99.90
16515;DHT22;8370;52.556;7.970;2023-06-19T09:34:21;23.60;99.90
16515;DHT22;8370;52.556;7.970;2023-06-19T09:36:47;23.50;99.90
16515;DHT22;8370;52.556;7.970;2023-06-19T09:39:13;23.50;99.90
16515;DHT22;8370;52.556;7.970;2023-06-19T09:41:38;23.40;99.90
16515;DHT22;8370;52.556;7.970;2023-06-19T09:44:05;23.50;99.90
16515;DHT22;8370;52.556;7.970;2023-06-19T09:46:37;23.50;99.90
16515;DHT22;8370;52.556;7.970;2023-06-19T09:49:05;23.40;99.90
16515;DHT22;8370;52.556;7.970;2023-06-19T09:51:32;23.30;99.90
16515;DHT22;8370;52.556;7.970;2023-06-19T09:53:58;23.30;99.90
16515;DHT22;8370;52.556;7.970;2023-06-19T09:56:26;23.30;99.90
16515;DHT22;8370;52.556;7.970;2023-06-19T09:58:52;23.40;99.90
16515;DHT22;8370;52.556;7.970;2023-06-19T10:01:19;23.40;99.90
16515;DHT22;8370;52.556;7.970;2023-06-19T10:03:44;23.50;99.90
16515;DHT22;8370;52.556;7.970;2023-06-19T10:06:13;23.50;99.90
16515;DHT22;8370;52.556;7.970;2023-06-19T10:08:40;23.50;99.90
16515;DHT22;8370;52.556;7.970;2023-06-19T10:11:06;23.70;99.90
16515;DHT22;8370;52.556;7.970;2023-06-19T10:13:33;23.80;99.90
16515;DHT22;8370;52.556;7.970;2023-06-19T10:15:59;23.80;99.90
16515;DHT22;8370;52.556;7.970;2023-06-19T10:18:24;24.00;99.90
16515;DHT22;8370;52.556;7.970;2023-06-19T10:20:53;24.00;99.90
16515;DHT22;8370;52.556;7.970;2023-06-19T10:23:23;23.90;99.90
16515;DHT22;8370;52.556;7.970;2023-06-19T10:25:55;23.90;99.90
16515;DHT22;8370;52.556;7.970;2023-06-19T10:28:22;24.00;99.90
16515;DHT22;8370;52.556;7.970;2023-06-19T10:30:51;24.00;99.90
16515;DHT22;8370;52.556;7.970;2023-06-19T10:33:17;24.00;99.90
16515;DHT22;8370;52.556;7.970;2023-06-19T10:35:43;23.90;99.90
16515;DHT22;8370;52.556;7.970;2023-06-19T10:38:08;23.70;99.90
16515;DHT22;8370;52.556;7.970;2023-06-19T10:40:37;23.40;99.90
16515;DHT22;8370;52.556;7.970;2023-06-19T10:43:03;23.30;99.90
16515;DHT22;8370;52.556;7.970;2023-06-19T10:45:29;23.20;99.90
16515;DHT22;8370;52.556;7.970;2023-06-19T10:47:55;23.10;99.90
16515;DHT22;8370;52.556;7.970;2023-06-19T10:50:20;23.10;99.90
16515;DHT22;8370;52.556;7.970;2023-06-19T10:52:46;23.10;99.90
16515;DHT22;8370;52.556;7.970;2023-06-19T10:55:12;23.20;99.90
16515;DHT22;8370;52.556;7.970;2023-06-19T10:57:39;23.30;99.90
16515;DHT22;8370;52.556;7.970;2023-06-19T11:00:05;23.50;99.90
16515;DHT22;8370;52.556;7.970;2023-06-19T11:02:37;23.70;99.90
16515;DHT22;8370;52.556;7.970;2023-06-19T11:05:05;23.70;99.90
16515;DHT22;8370;52.556;7.970;2023-06-19T11:07:31;23.70;99.90
16515;DHT22;8370;52.556;7.970;2023-06-19T11:09:57;23.70;99.90
16515;DHT22;8370;52.556;7.970;2023-06-19T11:12:22;23.70;99.90
16515;DHT22;8370;52.556;7.970;2023-06-19T11:14:48;23.70;99.90
16515;DHT22;8370;52.556;7.970;2023-06-19T11:17:14;23.60;99.90
16515;DHT22;8370;52.556;7.970;2023-06-19T11:19:39;23.70;99.90
16515;DHT22;8370;52.556;7.970;2023-06-19T11:22:07;23.80;99.90
16515;DHT22;8370;52.556;7.970;2023-06-19T11:24:33;24.00;99.90
16515;DHT22;8370;52.556;7.970;2023-06-19T11:26:58;24.30;99.90
16515;DHT22;8370;52.556;7.970;2023-06-19T11:29:25;24.40;99.90
16515;DHT22;8370;52.556;7.970;2023-06-19T11:32:12;24.40;99.90
16515;DHT22;8370;52.556;7.970;2023-06-19T11:34:37;24.40;99.90
16515;DHT22;8370;52.556;7.970;2023-06-19T11:37:24;24.40;99.90
16515;DHT22;8370;52.556;7.970;2023-06-19T11:39:49;24.30;99.90
16515;DHT22;8370;52.556;7.970;2023-06-19T11:42:16;24.30;99.90
16515;DHT22;8370;52.556;7.970;2023-06-19T11:44:52;24.20;99.90
16515;DHT22;8370;52.556;7.970;2023-06-19T11:47:18;24.60;99.90
16515;DHT22;8370;52.556;7.970;2023-06-19T11:49:43;25.00;99.90
16515;DHT22;8370;52.556;7.970;2023-06-19T11:52:12;25.30;99.90
16515;DHT22;8370;52.556;7.970;2023-06-19T11:54:37;25.70;99.90
16515;DHT22;8370;52.556;7.970;2023-06-19T11:57:03;26.10;99.90
16515;DHT22;8370;52.556;7.970;2023-06-19T11:59:28;26.40;99.90
16515;DHT22;8370;52.556;7.970;2023-06-19T12:01:55;26.50;99.90
16515;DHT22;8370;52.556;7.970;2023-06-19T12:04:23;26.70;99.90
16515;DHT22;8370;52.556;7.970;2023-06-19T12:06:48;26.60;99.90
16515;DHT22;8370;52.556;7.970;2023-06-19T12:09:14;26.80;99.90
16515;DHT22;8370;52.556;7.970;2023-06-19T12:11:40;27.20;99.90
16515;DHT22;8370;52.556;7.970;2023-06-19T12:14:05;27.70;99.90
16515;DHT22;8370;52.556;7.970;2023-06-19T12:16:30;27.90;99.90
16515;DHT22;8370;52.556;7.970;2023-06-19T12:18:56;28.50;99.90
16515;DHT22;8370;52.556;7.970;2023-06-19T12:21:21;29.10;99.90
16515;DHT22;8370;52.556;7.970;2023-06-19T12:23:47;28.70;99.90
16515;DHT22;8370;52.556;7.970;2023-06-19T12:26:13;28.40;99.90
16515;DHT22;8370;52.556;7.970;2023-06-19T12:28:38;27.90;99.90
16515;DHT22;8370;52.556;7.970;2023-06-19T12:31:03;28.30;99.90
16515;DHT22;8370;52.556;7.970;2023-06-19T12:33:29;28.40;99.90
16515;DHT22;8370;52.556;7.970;2023-06-19T12:35:58;28.60;99.90
16515;DHT22;8370;52.556;7.970;2023-06-19T12:38:24;29.30;99.90
16515;DHT22;8370;52.556;7.970;2023-06-19T12:40:49;29.50;99.90
16515;DHT22;8370;52.556;7.970;2023-06-19T12:43:14;29.40;99.90
16515;DHT22;8370;52.556;7.970;2023-06-19T12:45:40;29.70;99.90
16515;DHT22;8370;52.556;7.970;2023-06-19T12:48:06;29.70;99.90
16515;DHT22;8370;52.556;7.970;2023-06-19T12:50:32;30.10;99.90
16515;DHT22;8370;52.556;7.970;2023-06-19T12:52:57;31.30;99.90
16515;DHT22;8370;52.556;7.970;2023-06-19T12:55:23;32.30;99.90
16515;DHT22;8370;52.556;7.970;2023-06-19T12:57:48;33.00;99.90
16515;DHT22;8370;52.556;7.970;2023-06-19T13:00:14;32.40;99.90
16515;DHT22;8370;52.556;7.970;2023-06-19T13:02:39;32.30;99.90
16515;DHT22;8370;52.556;7.970;2023-06-19T13:05:06;31.60;99.90
16515;DHT22;8370;52.556;7.970;2023-06-19T13:07:32;31.70;99.90
16515;DHT22;8370;52.556;7.970;2023-06-19T13:09:57;31.70;99.90
16515;DHT22;8370;52.556;7.970;2023-06-19T13:12:23;31.90;99.90
16515;DHT22;8370;52.556;7.970;2023-06-19T13:14:48;31.50;99.90
16515;DHT22;8370;52.556;7.970;2023-06-19T13:17:14;31.00;99.90
16515;DHT22;8370;52.556;7.970;2023-06-19T13:19:40;30.60;99.90
16515;DHT22;8370;52.556;7.970;2023-06-19T13:22:05;30.30;99.90
16515;DHT22;8370;52.556;7.970;2023-06-19T13:24:31;30.00;99.90
16515;DHT22;8370;52.556;7.970;2023-06-19T13:26:56;29.80;99.90
16515;DHT22;8370;52.556;7.970;2023-06-19T13:29:22;29.50;99.90
16515;DHT22;8370;52.556;7.970;2023-06-19T13:31:47;28.70;99.90
16515;DHT22;8370;52.556;7.970;2023-06-19T13:34:13;28.50;99.90
16515;DHT22;8370;52.556;7.970;2023-06-19T13:36:38;28.30;99.90
16515;DHT22;8370;52.556;7.970;2023-06-19T13:39:05;28.30;99.90
16515;DHT22;8370;52.556;7.970;2023-06-19T13:41:30;28.20;99.90
16515;DHT22;8370;52.556;7.970;2023-06-19T13:43:58;28.40;99.90
16515;DHT22;8370;52.556;7.970;2023-06-19T13:46:23;28.30;99.90
16515;DHT22;8370;52.556;7.970;2023-06-19T13:48:49;28.30;99.90
16515;DHT22;8370;52.556;7.970;2023-06-19T13:51:20;28.30;99.90
16515;DHT22;8370;52.556;7.970;2023-06-19T13:53:46;28.30;99.90
16515;DHT22;8370;52.556;7.970;2023-06-19T13:56:11;28.30;99.90
16515;DHT22;8370;52.556;7.970;2023-06-19T13:58:37;28.20;99.90
16515;DHT22;8370;52.556;7.970;2023-06-19T14:01:03;28.30;99.90
16515;DHT22;8370;52.556;7.970;2023-06-19T14:03:28;28.40;99.90
16515;DHT22;8370;52.556;7.970;2023-06-19T14:05:54;28.50;99.90
16515;DHT22;8370;52.556;7.970;2023-06-19T14:08:20;28.30;99.90
16515;DHT22;8370;52.556;7.970;2023-06-19T14:10:46;28.40;99.90
16515;DHT22;8370;52.556;7.970;2023-06-19T14:13:11;28.40;99.90
16515;DHT22;8370;52.556;7.970;2023-06-19T14:15:37;28.30;99.90
16515;DHT22;8370;52.556;7.970;2023-06-19T14:18:02;28.50;99.90
16515;DHT22;8370;52.556;7.970;2023-06-19T14:20:27;28.60;99.90
16515;DHT22;8370;52.556;7.970;2023-06-19T14:22:53;28.50;99.90
16515;DHT22;8370;52.556;7.970;2023-06-19T14:25:18;28.40;99.90
16515;DHT22;8370;52.556;7.970;2023-06-19T14:27:44;28.30;99.90
16515;DHT22;8370;52.556;7.970;2023-06-19T14:30:09;28.30;99.90
16515;DHT22;8370;52.556;7.970;2023-06-19T14:32:35;28.40;99.90
16515;DHT22;8370;52.556;7.970;2023-06-19T14:35:02;28.50;99.90
16515;DHT22;8370;52.556;7.970;2023-06-19T14:37:28;28.40;99.90
16515;DHT22;8370;52.556;7.970;2023-06-19T14:39:53;28.40;99.90
16515;DHT22;8370;52.556;7.970;2023-06-19T14:42:20;28.40;99.90
16515;DHT22;8370;52.556;7.970;2023-06-19T14:44:45;28.40;99.90
16515;DHT22;8370;52.556;7.970;2023-06-19T14:47:11;28.20;99.90
16515;DHT22;8370;52.556;7.970;2023-06-19T14:49:36;28.00;99.90
16515;DHT22;8370;52.556;7.970;2023-06-19T14:52:03;28.00;99.90
16515;DHT22;8370;52.556;7.970;2023-06-19T14:54:29;28.20;99.90
16515;DHT22;8370;52.556;7.970;2023-06-19T14:56:54;28.20;99.90
16515;DHT22;8370;52.556;7.970;2023-06-19T14:59:20;28.00;99.90
16515;DHT22;8370;52.556;7.970;2023-06-19T15:01:45;27.90;99.90
16515;DHT22;8370;52.556;7.970;2023-06-19T15:04:11;28.00;99.90
16515;DHT22;8370;52.556;7.970;2023-06-19T15:06:36;27.90;99.90
16515;DHT22;8370;52.556;7.970;2023-06-19T15:09:01;28.10;99.90
16515;DHT22;8370;52.556;7.970;2023-06-19T15:11:27;28.20;99.90
16515;DHT22;8370;52.556;7.970;2023-06-19T15:13:53;28.30;99.90
16515;DHT22;8370;52.556;7.970;2023-06-19T15:16:18;28.30;99.90
16515;DHT22;8370;52.556;7.970;2023-06-19T15:18:47;28.10;99.90
16515;DHT22;8370;52.556;7.970;2023-06-19T15:21:13;28.20;99.90
16515;DHT22;8370;52.556;7.970;2023-06-19T15:23:38;28.00;99.90
16515;DHT22;8370;52.556;7.970;2023-06-19T15:26:04;27.80;99.90
16515;DHT22;8370;52.556;7.970;2023-06-19T15:28:32;27.80;99.90
16515;DHT22;8370;52.556;7.970;2023-06-19T15:30:57;28.00;99.90
16515;DHT22;8370;52.556;7.970;2023-06-19T15:33:23;28.10;99.90
16515;DHT22;8370;52.556;7.970;2023-06-19T15:35:48;28.20;99.90
16515;DHT22;8370;52.556;7.970;2023-06-19T15:38:15;28.30;99.90
16515;DHT22;8370;52.556;7.970;2023-06-19T15:40:40;28.10;99.90